Arona, Pennsylvania
Current Conditions -  °F | °C
As of 6:50 PM on Friday 31 Oct 2014 (Local Time) from KLBE Reporting Station
Light Rain Light Rain  
Wind Chill: 41°   Ceiling: 900
Heat Index: 41°   Visibility: 4mi
Dew Point: 41°   Wind: 0mph
Humidity: 100%   Direction: NA
Pressure: 29.89"   Gusts: NA
Location:  40.27°N, 79.66°W
Report Text: KLBE 312250Z 00000KT 4SM -RA BR BKN009 OVC018 05/05 A2989
Loading
Personal Weather Stations






























Interactive Weather Map
Tropical Storm Tracking
New forecast layout! Learn more

10-Day Weather Forecast

Advertisements
Track Severe Weather on mobile